sensor_id;sensor_type;location;lat;lon;timestamp;temperature;humidity
51793;DHT22;37850;53.178;6.376;2023-06-22T00:00:55;18.70;99.90
51793;DHT22;37850;53.178;6.376;2023-06-22T00:03:22;18.70;99.90
51793;DHT22;37850;53.178;6.376;2023-06-22T00:05:49;18.70;99.90
51793;DHT22;37850;53.178;6.376;2023-06-22T00:08:16;18.60;99.90
51793;DHT22;37850;53.178;6.376;2023-06-22T00:10:43;18.60;99.90
51793;DHT22;37850;53.178;6.376;2023-06-22T00:13:10;18.60;99.90
51793;DHT22;37850;53.178;6.376;2023-06-22T00:15:36;18.60;99.90
51793;DHT22;37850;53.178;6.376;2023-06-22T00:18:02;18.50;99.90
51793;DHT22;37850;53.178;6.376;2023-06-22T00:20:28;18.50;99.90
51793;DHT22;37850;53.178;6.376;2023-06-22T00:22:59;18.50;99.90
51793;DHT22;37850;53.178;6.376;2023-06-22T00:25:25;18.40;99.90
51793;DHT22;37850;53.178;6.376;2023-06-22T00:27:51;18.40;99.90
51793;DHT22;37850;53.178;6.376;2023-06-22T00:30:17;18.40;99.90
51793;DHT22;37850;53.178;6.376;2023-06-22T00:32:44;18.30;99.90
51793;DHT22;37850;53.178;6.376;2023-06-22T00:35:11;18.30;99.90
51793;DHT22;37850;53.178;6.376;2023-06-22T00:37:38;18.30;99.90
51793;DHT22;37850;53.178;6.376;2023-06-22T00:40:10;18.30;99.90
51793;DHT22;37850;53.178;6.376;2023-06-22T00:42:40;18.20;99.90
51793;DHT22;37850;53.178;6.376;2023-06-22T00:45:07;18.20;99.90
51793;DHT22;37850;53.178;6.376;2023-06-22T00:47:36;18.10;99.90
51793;DHT22;37850;53.178;6.376;2023-06-22T00:50:02;18.10;99.90
51793;DHT22;37850;53.178;6.376;2023-06-22T00:52:29;18.10;99.90
51793;DHT22;37850;53.178;6.376;2023-06-22T00:54:59;18.10;99.90
51793;DHT22;37850;53.178;6.376;2023-06-22T00:57:27;18.00;99.90
51793;DHT22;37850;53.178;6.376;2023-06-22T00:59:53;18.00;99.90
51793;DHT22;37850;53.178;6.376;2023-06-22T01:02:20;18.00;99.90
51793;DHT22;37850;53.178;6.376;2023-06-22T01:04:46;17.90;99.90
51793;DHT22;37850;53.178;6.376;2023-06-22T01:10:16;17.90;99.90
51793;DHT22;37850;53.178;6.376;2023-06-22T01:12:48;17.90;99.90
51793;DHT22;37850;53.178;6.376;2023-06-22T01:15:33;17.90;99.90
51793;DHT22;37850;53.178;6.376;2023-06-22T01:18:04;17.80;99.90
51793;DHT22;37850;53.178;6.376;2023-06-22T01:20:31;17.70;99.90
51793;DHT22;37850;53.178;6.376;2023-06-22T01:28:49;17.60;99.90
51793;DHT22;37850;53.178;6.376;2023-06-22T01:31:22;17.60;99.90
51793;DHT22;37850;53.178;6.376;2023-06-22T01:33:53;17.60;99.90
51793;DHT22;37850;53.178;6.376;2023-06-22T01:36:19;17.60;99.90
51793;DHT22;37850;53.178;6.376;2023-06-22T01:38:48;17.50;99.90
51793;DHT22;37850;53.178;6.376;2023-06-22T01:41:16;17.50;99.90
51793;DHT22;37850;53.178;6.376;2023-06-22T01:43:43;17.50;99.90
51793;DHT22;37850;53.178;6.376;2023-06-22T01:46:10;17.40;99.90
51793;DHT22;37850;53.178;6.376;2023-06-22T01:48:38;17.40;99.90
51793;DHT22;37850;53.178;6.376;2023-06-22T01:51:04;17.40;99.90
51793;DHT22;37850;53.178;6.376;2023-06-22T01:53:31;17.30;99.90
51793;DHT22;37850;53.178;6.376;2023-06-22T01:55:57;17.30;99.90
51793;DHT22;37850;53.178;6.376;2023-06-22T01:58:26;17.30;99.90
51793;DHT22;37850;53.178;6.376;2023-06-22T02:01:13;17.20;99.90
51793;DHT22;37850;53.178;6.376;2023-06-22T02:03:47;17.20;99.90
51793;DHT22;37850;53.178;6.376;2023-06-22T02:06:35;17.20;99.90
51793;DHT22;37850;53.178;6.376;2023-06-22T02:09:08;17.20;99.90
51793;DHT22;37850;53.178;6.376;2023-06-22T02:11:36;17.10;99.90
51793;DHT22;37850;53.178;6.376;2023-06-22T02:14:02;17.10;99.90
51793;DHT22;37850;53.178;6.376;2023-06-22T02:16:31;17.10;99.90
51793;DHT22;37850;53.178;6.376;2023-06-22T02:19:01;17.10;99.90
51793;DHT22;37850;53.178;6.376;2023-06-22T02:21:29;17.00;99.90
51793;DHT22;37850;53.178;6.376;2023-06-22T02:23:56;17.00;99.90
51793;DHT22;37850;53.178;6.376;2023-06-22T02:26:22;17.00;99.90
51793;DHT22;37850;53.178;6.376;2023-06-22T02:28:49;17.00;99.90
51793;DHT22;37850;53.178;6.376;2023-06-22T02:31:14;16.90;99.90
51793;DHT22;37850;53.178;6.376;2023-06-22T02:33:41;16.90;99.90
51793;DHT22;37850;53.178;6.376;2023-06-22T02:36:07;16.90;99.90
51793;DHT22;37850;53.178;6.376;2023-06-22T02:38:35;16.90;99.90
51793;DHT22;37850;53.178;6.376;2023-06-22T02:41:02;16.90;99.90
51793;DHT22;37850;53.178;6.376;2023-06-22T02:43:28;16.80;99.90
51793;DHT22;37850;53.178;6.376;2023-06-22T02:45:54;16.80;99.90
51793;DHT22;37850;53.178;6.376;2023-06-22T02:48:19;16.80;99.90
51793;DHT22;37850;53.178;6.376;2023-06-22T02:50:45;16.80;99.90
51793;DHT22;37850;53.178;6.376;2023-06-22T02:53:11;16.80;99.90
51793;DHT22;37850;53.178;6.376;2023-06-22T02:55:36;16.80;99.90
51793;DHT22;37850;53.178;6.376;2023-06-22T02:58:02;16.70;99.90
51793;DHT22;37850;53.178;6.376;2023-06-22T03:00:31;16.70;99.90
51793;DHT22;37850;53.178;6.376;2023-06-22T03:02:57;16.60;99.90
51793;DHT22;37850;53.178;6.376;2023-06-22T03:05:23;16.60;99.90
51793;DHT22;37850;53.178;6.376;2023-06-22T03:07:49;16.60;99.90
51793;DHT22;37850;53.178;6.376;2023-06-22T03:10:15;16.50;99.90
51793;DHT22;37850;53.178;6.376;2023-06-22T03:12:42;16.50;99.90
51793;DHT22;37850;53.178;6.376;2023-06-22T03:15:10;16.50;99.90
51793;DHT22;37850;53.178;6.376;2023-06-22T03:17:36;16.50;99.90
51793;DHT22;37850;53.178;6.376;2023-06-22T03:20:03;16.50;99.90
51793;DHT22;37850;53.178;6.376;2023-06-22T03:22:35;16.40;99.90
51793;DHT22;37850;53.178;6.376;2023-06-22T03:25:01;16.40;99.90
51793;DHT22;37850;53.178;6.376;2023-06-22T03:27:27;16.60;99.90
51793;DHT22;37850;53.178;6.376;2023-06-22T03:29:53;16.40;99.90
51793;DHT22;37850;53.178;6.376;2023-06-22T03:32:19;16.40;99.90
51793;DHT22;37850;53.178;6.376;2023-06-22T03:34:44;16.40;99.90
51793;DHT22;37850;53.178;6.376;2023-06-22T03:37:15;16.30;99.90
51793;DHT22;37850;53.178;6.376;2023-06-22T03:39:41;16.30;99.90
51793;DHT22;37850;53.178;6.376;2023-06-22T03:42:07;16.30;99.90
51793;DHT22;37850;53.178;6.376;2023-06-22T03:44:34;16.40;99.90
51793;DHT22;37850;53.178;6.376;2023-06-22T03:47:02;16.30;99.90
51793;DHT22;37850;53.178;6.376;2023-06-22T03:49:28;16.30;99.90
51793;DHT22;37850;53.178;6.376;2023-06-22T03:51:54;16.30;99.90
51793;DHT22;37850;53.178;6.376;2023-06-22T03:54:20;16.30;99.90
51793;DHT22;37850;53.178;6.376;2023-06-22T03:56:45;16.30;99.90
51793;DHT22;37850;53.178;6.376;2023-06-22T03:59:11;16.30;99.90
51793;DHT22;37850;53.178;6.376;2023-06-22T04:01:37;16.30;99.90
51793;DHT22;37850;53.178;6.376;2023-06-22T04:04:03;16.30;99.90
51793;DHT22;37850;53.178;6.376;2023-06-22T04:06:28;16.30;99.90
51793;DHT22;37850;53.178;6.376;2023-06-22T04:08:54;16.30;99.90
51793;DHT22;37850;53.178;6.376;2023-06-22T04:11:20;16.30;99.90
51793;DHT22;37850;53.178;6.376;2023-06-22T04:13:45;16.30;99.90
51793;DHT22;37850;53.178;6.376;2023-06-22T04:16:11;16.30;99.90
51793;DHT22;37850;53.178;6.376;2023-06-22T04:18:37;16.30;99.90
51793;DHT22;37850;53.178;6.376;2023-06-22T04:21:03;16.30;99.90
51793;DHT22;37850;53.178;6.376;2023-06-22T04:23:29;16.20;99.90
51793;DHT22;37850;53.178;6.376;2023-06-22T04:25:54;16.30;99.90
51793;DHT22;37850;53.178;6.376;2023-06-22T04:28:22;16.20;99.90
51793;DHT22;37850;53.178;6.376;2023-06-22T04:30:48;16.20;99.90
51793;DHT22;37850;53.178;6.376;2023-06-22T04:33:15;16.20;99.90
51793;DHT22;37850;53.178;6.376;2023-06-22T04:35:41;16.20;99.90
51793;DHT22;37850;53.178;6.376;2023-06-22T04:38:08;16.30;99.90
51793;DHT22;37850;53.178;6.376;2023-06-22T04:40:34;16.30;99.90
51793;DHT22;37850;53.178;6.376;2023-06-22T04:43:00;16.40;99.90
51793;DHT22;37850;53.178;6.376;2023-06-22T04:45:28;16.60;99.90
51793;DHT22;37850;53.178;6.376;2023-06-22T04:47:57;16.60;99.90
51793;DHT22;37850;53.178;6.376;2023-06-22T04:50:23;16.60;99.90
51793;DHT22;37850;53.178;6.376;2023-06-22T04:52:50;16.60;99.90
51793;DHT22;37850;53.178;6.376;2023-06-22T04:55:16;16.60;99.90
51793;DHT22;37850;53.178;6.376;2023-06-22T04:57:48;16.70;99.90
51793;DHT22;37850;53.178;6.376;2023-06-22T05:00:19;16.70;99.90
51793;DHT22;37850;53.178;6.376;2023-06-22T05:02:46;16.70;99.90
51793;DHT22;37850;53.178;6.376;2023-06-22T05:05:12;16.80;99.90
51793;DHT22;37850;53.178;6.376;2023-06-22T05:07:50;16.90;99.90
51793;DHT22;37850;53.178;6.376;2023-06-22T05:10:19;17.00;99.90
51793;DHT22;37850;53.178;6.376;2023-06-22T05:12:46;17.20;99.90
51793;DHT22;37850;53.178;6.376;2023-06-22T05:15:12;17.40;99.90
51793;DHT22;37850;53.178;6.376;2023-06-22T05:17:38;17.50;99.90
51793;DHT22;37850;53.178;6.376;2023-06-22T05:20:12;17.70;99.90
51793;DHT22;37850;53.178;6.376;2023-06-22T05:22:39;17.90;99.90
51793;DHT22;37850;53.178;6.376;2023-06-22T05:25:09;18.10;99.90
51793;DHT22;37850;53.178;6.376;2023-06-22T05:27:35;18.30;99.90
51793;DHT22;37850;53.178;6.376;2023-06-22T05:30:08;18.60;99.90
51793;DHT22;37850;53.178;6.376;2023-06-22T05:32:35;18.80;99.90
51793;DHT22;37850;53.178;6.376;2023-06-22T05:35:07;18.90;99.90
51793;DHT22;37850;53.178;6.376;2023-06-22T05:37:34;18.90;99.90
51793;DHT22;37850;53.178;6.376;2023-06-22T05:39:59;18.80;99.90
51793;DHT22;37850;53.178;6.376;2023-06-22T05:42:25;18.70;99.90
51793;DHT22;37850;53.178;6.376;2023-06-22T05:44:52;18.70;99.90
51793;DHT22;37850;53.178;6.376;2023-06-22T05:47:18;18.60;99.90
51793;DHT22;37850;53.178;6.376;2023-06-22T05:49:44;18.50;99.90
51793;DHT22;37850;53.178;6.376;2023-06-22T05:52:10;18.50;99.90
51793;DHT22;37850;53.178;6.376;2023-06-22T05:54:36;18.50;99.90
51793;DHT22;37850;53.178;6.376;2023-06-22T05:57:04;18.50;99.90
51793;DHT22;37850;53.178;6.376;2023-06-22T05:59:30;18.50;99.90
51793;DHT22;37850;53.178;6.376;2023-06-22T06:01:55;18.50;99.90
51793;DHT22;37850;53.178;6.376;2023-06-22T06:04:21;18.50;99.90
51793;DHT22;37850;53.178;6.376;2023-06-22T06:06:47;18.60;99.90
51793;DHT22;37850;53.178;6.376;2023-06-22T06:09:14;18.70;99.90
51793;DHT22;37850;53.178;6.376;2023-06-22T06:11:40;18.90;99.90
51793;DHT22;37850;53.178;6.376;2023-06-22T06:14:05;19.00;99.90
51793;DHT22;37850;53.178;6.376;2023-06-22T06:16:32;19.20;99.90
51793;DHT22;37850;53.178;6.376;2023-06-22T06:18:57;19.40;99.90
51793;DHT22;37850;53.178;6.376;2023-06-22T06:21:24;19.50;99.90
51793;DHT22;37850;53.178;6.376;2023-06-22T06:23:50;19.50;99.90
51793;DHT22;37850;53.178;6.376;2023-06-22T06:26:15;19.50;99.90
51793;DHT22;37850;53.178;6.376;2023-06-22T06:28:54;19.50;99.90
51793;DHT22;37850;53.178;6.376;2023-06-22T06:31:20;19.40;99.90
51793;DHT22;37850;53.178;6.376;2023-06-22T06:33:46;19.40;99.90
51793;DHT22;37850;53.178;6.376;2023-06-22T06:36:12;19.40;99.90
51793;DHT22;37850;53.178;6.376;2023-06-22T06:38:37;19.40;99.90
51793;DHT22;37850;53.178;6.376;2023-06-22T06:41:03;19.40;99.90
51793;DHT22;37850;53.178;6.376;2023-06-22T06:43:29;19.50;99.90
51793;DHT22;37850;53.178;6.376;2023-06-22T06:45:54;19.50;99.90
51793;DHT22;37850;53.178;6.376;2023-06-22T06:48:20;19.50;99.90
51793;DHT22;37850;53.178;6.376;2023-06-22T06:50:46;19.60;99.90
51793;DHT22;37850;53.178;6.376;2023-06-22T06:53:12;19.70;99.90
51793;DHT22;37850;53.178;6.376;2023-06-22T06:55:37;19.70;99.90
51793;DHT22;37850;53.178;6.376;2023-06-22T06:58:03;19.70;99.90
51793;DHT22;37850;53.178;6.376;2023-06-22T07:00:33;19.80;99.90
51793;DHT22;37850;53.178;6.376;2023-06-22T07:03:01;19.80;99.90
51793;DHT22;37850;53.178;6.376;2023-06-22T07:05:27;19.90;99.90
51793;DHT22;37850;53.178;6.376;2023-06-22T07:07:52;19.90;99.90
51793;DHT22;37850;53.178;6.376;2023-06-22T07:10:18;20.00;99.90
51793;DHT22;37850;53.178;6.376;2023-06-22T07:12:44;20.10;99.90
51793;DHT22;37850;53.178;6.376;2023-06-22T07:15:11;20.20;99.90
51793;DHT22;37850;53.178;6.376;2023-06-22T07:17:39;20.20;99.90
51793;DHT22;37850;53.178;6.376;2023-06-22T07:20:07;20.30;99.90
51793;DHT22;37850;53.178;6.376;2023-06-22T07:22:38;20.40;99.90
51793;DHT22;37850;53.178;6.376;2023-06-22T07:25:04;20.50;99.90
51793;DHT22;37850;53.178;6.376;2023-06-22T07:27:37;20.60;99.90
51793;DHT22;37850;53.178;6.376;2023-06-22T07:30:04;20.60;99.90
51793;DHT22;37850;53.178;6.376;2023-06-22T07:32:30;20.80;99.90
51793;DHT22;37850;53.178;6.376;2023-06-22T07:34:55;20.80;99.90
51793;DHT22;37850;53.178;6.376;2023-06-22T07:37:21;20.80;99.90
51793;DHT22;37850;53.178;6.376;2023-06-22T07:39:47;21.00;99.90
51793;DHT22;37850;53.178;6.376;2023-06-22T07:42:13;21.10;99.90
51793;DHT22;37850;53.178;6.376;2023-06-22T07:44:44;21.20;99.90
51793;DHT22;37850;53.178;6.376;2023-06-22T07:47:09;21.30;99.90
51793;DHT22;37850;53.178;6.376;2023-06-22T07:49:35;21.40;99.90
51793;DHT22;37850;53.178;6.376;2023-06-22T07:52:01;21.50;99.90
51793;DHT22;37850;53.178;6.376;2023-06-22T07:54:27;21.60;99.90
51793;DHT22;37850;53.178;6.376;2023-06-22T07:56:53;21.70;99.90
51793;DHT22;37850;53.178;6.376;2023-06-22T07:59:19;21.70;99.90
51793;DHT22;37850;53.178;6.376;2023-06-22T08:01:44;21.80;99.90
51793;DHT22;37850;53.178;6.376;2023-06-22T08:04:10;21.90;99.90
51793;DHT22;37850;53.178;6.376;2023-06-22T08:06:36;22.00;99.90
51793;DHT22;37850;53.178;6.376;2023-06-22T08:09:01;21.90;99.90
51793;DHT22;37850;53.178;6.376;2023-06-22T08:11:27;21.90;99.90
51793;DHT22;37850;53.178;6.376;2023-06-22T08:13:53;22.00;99.90
51793;DHT22;37850;53.178;6.376;2023-06-22T08:16:21;22.00;99.90
51793;DHT22;37850;53.178;6.376;2023-06-22T08:18:47;22.10;99.90
51793;DHT22;37850;53.178;6.376;2023-06-22T08:21:13;22.20;99.90
51793;DHT22;37850;53.178;6.376;2023-06-22T08:23:38;22.20;99.90
51793;DHT22;37850;53.178;6.376;2023-06-22T08:26:04;22.30;99.90
51793;DHT22;37850;53.178;6.376;2023-06-22T08:28:30;22.40;99.90
51793;DHT22;37850;53.178;6.376;2023-06-22T08:30:56;22.40;99.90
51793;DHT22;37850;53.178;6.376;2023-06-22T08:33:22;22.50;99.90
51793;DHT22;37850;53.178;6.376;2023-06-22T08:35:55;22.50;99.90
51793;DHT22;37850;53.178;6.376;2023-06-22T08:38:21;22.60;99.90
51793;DHT22;37850;53.178;6.376;2023-06-22T08:40:46;22.70;99.90
51793;DHT22;37850;53.178;6.376;2023-06-22T08:43:12;22.80;99.90
51793;DHT22;37850;53.178;6.376;2023-06-22T08:45:38;22.90;99.90
51793;DHT22;37850;53.178;6.376;2023-06-22T08:48:03;22.90;99.90
51793;DHT22;37850;53.178;6.376;2023-06-22T08:50:32;22.90;99.90
51793;DHT22;37850;53.178;6.376;2023-06-22T08:53:01;23.00;99.90
51793;DHT22;37850;53.178;6.376;2023-06-22T08:55:27;23.00;99.90
51793;DHT22;37850;53.178;6.376;2023-06-22T08:57:52;23.10;99.90
51793;DHT22;37850;53.178;6.376;2023-06-22T09:00:18;23.20;99.90
51793;DHT22;37850;53.178;6.376;2023-06-22T09:02:46;23.20;99.90
51793;DHT22;37850;53.178;6.376;2023-06-22T09:05:12;23.30;99.90
51793;DHT22;37850;53.178;6.376;2023-06-22T09:07:38;23.40;99.90
51793;DHT22;37850;53.178;6.376;2023-06-22T09:10:05;23.40;99.90
51793;DHT22;37850;53.178;6.376;2023-06-22T09:12:32;23.40;99.90
51793;DHT22;37850;53.178;6.376;2023-06-22T09:14:59;23.40;99.90
51793;DHT22;37850;53.178;6.376;2023-06-22T09:17:26;23.50;99.90
51793;DHT22;37850;53.178;6.376;2023-06-22T09:19:51;23.50;99.90
51793;DHT22;37850;53.178;6.376;2023-06-22T09:22:17;23.50;99.90
51793;DHT22;37850;53.178;6.376;2023-06-22T09:24:43;23.50;99.90
51793;DHT22;37850;53.178;6.376;2023-06-22T09:27:08;23.50;99.90
51793;DHT22;37850;53.178;6.376;2023-06-22T09:29:34;23.50;99.90
51793;DHT22;37850;53.178;6.376;2023-06-22T09:32:00;23.60;99.90
51793;DHT22;37850;53.178;6.376;2023-06-22T09:34:26;23.60;99.90
51793;DHT22;37850;53.178;6.376;2023-06-22T09:36:51;23.60;99.90
51793;DHT22;37850;53.178;6.376;2023-06-22T09:39:18;23.70;99.90
51793;DHT22;37850;53.178;6.376;2023-06-22T09:41:44;23.70;99.90
51793;DHT22;37850;53.178;6.376;2023-06-22T09:44:10;23.80;99.90
51793;DHT22;37850;53.178;6.376;2023-06-22T09:46:35;23.80;99.90
51793;DHT22;37850;53.178;6.376;2023-06-22T09:49:02;23.80;99.90
51793;DHT22;37850;53.178;6.376;2023-06-22T09:51:27;23.80;99.90
51793;DHT22;37850;53.178;6.376;2023-06-22T09:53:53;23.90;99.90
51793;DHT22;37850;53.178;6.376;2023-06-22T09:56:19;24.00;99.90
51793;DHT22;37850;53.178;6.376;2023-06-22T09:58:46;24.00;99.90
51793;DHT22;37850;53.178;6.376;2023-06-22T10:01:12;24.00;99.90
51793;DHT22;37850;53.178;6.376;2023-06-22T10:03:41;24.00;99.90
51793;DHT22;37850;53.178;6.376;2023-06-22T10:06:07;24.00;99.90
51793;DHT22;37850;53.178;6.376;2023-06-22T10:08:34;24.10;99.90
51793;DHT22;37850;53.178;6.376;2023-06-22T10:11:00;24.20;99.90
51793;DHT22;37850;53.178;6.376;2023-06-22T10:13:25;24.30;99.90
51793;DHT22;37850;53.178;6.376;2023-06-22T10:15:51;24.30;99.90
51793;DHT22;37850;53.178;6.376;2023-06-22T10:18:21;24.30;99.90
51793;DHT22;37850;53.178;6.376;2023-06-22T10:20:50;24.30;99.90
51793;DHT22;37850;53.178;6.376;2023-06-22T10:23:17;24.40;99.90
51793;DHT22;37850;53.178;6.376;2023-06-22T10:25:43;24.40;99.90
51793;DHT22;37850;53.178;6.376;2023-06-22T10:28:09;24.40;99.90
51793;DHT22;37850;53.178;6.376;2023-06-22T10:30:34;24.40;99.90
51793;DHT22;37850;53.178;6.376;2023-06-22T10:33:00;24.40;99.90
51793;DHT22;37850;53.178;6.376;2023-06-22T10:35:26;24.50;99.90
51793;DHT22;37850;53.178;6.376;2023-06-22T10:37:52;24.60;99.90
51793;DHT22;37850;53.178;6.376;2023-06-22T10:40:20;24.60;99.90
51793;DHT22;37850;53.178;6.376;2023-06-22T10:42:45;24.60;99.90
51793;DHT22;37850;53.178;6.376;2023-06-22T10:45:12;24.50;99.90
51793;DHT22;37850;53.178;6.376;2023-06-22T10:47:37;24.50;99.90
51793;DHT22;37850;53.178;6.376;2023-06-22T10:50:04;24.50;99.90
51793;DHT22;37850;53.178;6.376;2023-06-22T10:52:30;24.50;99.90
51793;DHT22;37850;53.178;6.376;2023-06-22T10:54:55;24.50;99.90
51793;DHT22;37850;53.178;6.376;2023-06-22T10:57:21;24.60;99.90
51793;DHT22;37850;53.178;6.376;2023-06-22T10:59:47;24.60;99.90
51793;DHT22;37850;53.178;6.376;2023-06-22T11:02:13;24.60;99.90
51793;DHT22;37850;53.178;6.376;2023-06-22T11:04:39;24.60;99.90
51793;DHT22;37850;53.178;6.376;2023-06-22T11:07:05;24.50;99.90
51793;DHT22;37850;53.178;6.376;2023-06-22T11:09:30;24.60;99.90
51793;DHT22;37850;53.178;6.376;2023-06-22T11:11:57;24.60;99.90
51793;DHT22;37850;53.178;6.376;2023-06-22T11:14:24;24.60;99.90
51793;DHT22;37850;53.178;6.376;2023-06-22T11:16:50;24.60;99.90
51793;DHT22;37850;53.178;6.376;2023-06-22T11:19:16;24.60;99.90
51793;DHT22;37850;53.178;6.376;2023-06-22T11:21:42;24.60;99.90
51793;DHT22;37850;53.178;6.376;2023-06-22T11:24:08;24.60;99.90
51793;DHT22;37850;53.178;6.376;2023-06-22T11:26:34;24.70;99.90
51793;DHT22;37850;53.178;6.376;2023-06-22T11:29:00;24.70;99.90
51793;DHT22;37850;53.178;6.376;2023-06-22T11:31:26;24.80;99.90
51793;DHT22;37850;53.178;6.376;2023-06-22T11:33:52;24.80;99.90
51793;DHT22;37850;53.178;6.376;2023-06-22T11:36:18;24.80;99.90
51793;DHT22;37850;53.178;6.376;2023-06-22T11:38:44;24.80;99.90
51793;DHT22;37850;53.178;6.376;2023-06-22T11:41:10;24.80;99.90
51793;DHT22;37850;53.178;6.376;2023-06-22T11:43:36;24.80;99.90
51793;DHT22;37850;53.178;6.376;2023-06-22T11:46:03;24.70;99.90
51793;DHT22;37850;53.178;6.376;2023-06-22T11:48:30;24.80;99.90
51793;DHT22;37850;53.178;6.376;2023-06-22T11:50:56;24.80;99.90
51793;DHT22;37850;53.178;6.376;2023-06-22T11:53:24;24.80;99.90
51793;DHT22;37850;53.178;6.376;2023-06-22T11:55:50;24.80;99.90
51793;DHT22;37850;53.178;6.376;2023-06-22T11:58:16;24.80;99.90
51793;DHT22;37850;53.178;6.376;2023-06-22T12:00:42;24.80;99.90
51793;DHT22;37850;53.178;6.376;2023-06-22T12:03:08;24.80;99.90
51793;DHT22;37850;53.178;6.376;2023-06-22T12:05:35;24.80;99.90
51793;DHT22;37850;53.178;6.376;2023-06-22T12:08:01;24.80;99.90
51793;DHT22;37850;53.178;6.376;2023-06-22T12:10:27;24.80;99.90
51793;DHT22;37850;53.178;6.376;2023-06-22T12:12:55;24.70;99.90
51793;DHT22;37850;53.178;6.376;2023-06-22T12:15:23;24.70;99.90
51793;DHT22;37850;53.178;6.376;2023-06-22T12:17:49;24.70;99.90
51793;DHT22;37850;53.178;6.376;2023-06-22T12:20:15;24.60;99.90
51793;DHT22;37850;53.178;6.376;2023-06-22T12:22:41;24.60;99.90
51793;DHT22;37850;53.178;6.376;2023-06-22T12:25:11;24.60;99.90
51793;DHT22;37850;53.178;6.376;2023-06-22T12:27:37;24.70;99.90
51793;DHT22;37850;53.178;6.376;2023-06-22T12:30:04;24.60;99.90
51793;DHT22;37850;53.178;6.376;2023-06-22T12:32:30;24.60;99.90
51793;DHT22;37850;53.178;6.376;2023-06-22T12:34:56;24.60;99.90
51793;DHT22;37850;53.178;6.376;2023-06-22T12:37:23;24.60;99.90
51793;DHT22;37850;53.178;6.376;2023-06-22T12:39:49;24.60;99.90
51793;DHT22;37850;53.178;6.376;2023-06-22T12:42:17;24.60;99.90
51793;DHT22;37850;53.178;6.376;2023-06-22T12:44:43;24.50;99.90
51793;DHT22;37850;53.178;6.376;2023-06-22T12:47:09;24.60;99.90
51793;DHT22;37850;53.178;6.376;2023-06-22T12:49:36;24.60;99.90
51793;DHT22;37850;53.178;6.376;2023-06-22T12:52:02;24.50;99.90
51793;DHT22;37850;53.178;6.376;2023-06-22T12:54:28;24.40;99.90
51793;DHT22;37850;53.178;6.376;2023-06-22T12:56:55;24.40;99.90
51793;DHT22;37850;53.178;6.376;2023-06-22T12:59:21;24.30;99.90
51793;DHT22;37850;53.178;6.376;2023-06-22T13:01:46;24.20;99.90
51793;DHT22;37850;53.178;6.376;2023-06-22T13:04:12;24.10;99.90
51793;DHT22;37850;53.178;6.376;2023-06-22T13:06:43;24.10;99.90
51793;DHT22;37850;53.178;6.376;2023-06-22T13:09:13;24.10;99.90
51793;DHT22;37850;53.178;6.376;2023-06-22T13:11:39;24.10;99.90
51793;DHT22;37850;53.178;6.376;2023-06-22T13:14:05;24.00;99.90
51793;DHT22;37850;53.178;6.376;2023-06-22T13:16:31;24.00;99.90
51793;DHT22;37850;53.178;6.376;2023-06-22T13:18:56;24.00;99.90
51793;DHT22;37850;53.178;6.376;2023-06-22T13:21:22;24.00;99.90
51793;DHT22;37850;53.178;6.376;2023-06-22T13:23:48;24.00;99.90
51793;DHT22;37850;53.178;6.376;2023-06-22T13:26:14;23.90;99.90
51793;DHT22;37850;53.178;6.376;2023-06-22T13:28:39;23.90;99.90
51793;DHT22;37850;53.178;6.376;2023-06-22T13:31:05;23.90;99.90
51793;DHT22;37850;53.178;6.376;2023-06-22T13:33:31;23.90;99.90
51793;DHT22;37850;53.178;6.376;2023-06-22T13:35:56;23.90;99.90
51793;DHT22;37850;53.178;6.376;2023-06-22T13:38:22;23.80;99.90
51793;DHT22;37850;53.178;6.376;2023-06-22T13:40:49;23.80;99.90
51793;DHT22;37850;53.178;6.376;2023-06-22T13:43:15;23.80;99.90
51793;DHT22;37850;53.178;6.376;2023-06-22T13:45:41;23.80;99.90
51793;DHT22;37850;53.178;6.376;2023-06-22T13:48:07;23.80;99.90
51793;DHT22;37850;53.178;6.376;2023-06-22T13:50:33;23.70;99.90
51793;DHT22;37850;53.178;6.376;2023-06-22T13:52:58;23.70;99.90
51793;DHT22;37850;53.178;6.376;2023-06-22T13:55:24;23.70;99.90
51793;DHT22;37850;53.178;6.376;2023-06-22T13:57:52;23.70;99.90
51793;DHT22;37850;53.178;6.376;2023-06-22T14:00:18;23.60;99.90
51793;DHT22;37850;53.178;6.376;2023-06-22T14:02:44;23.60;99.90
51793;DHT22;37850;53.178;6.376;2023-06-22T14:05:10;23.60;99.90
51793;DHT22;37850;53.178;6.376;2023-06-22T14:07:36;23.50;99.90
51793;DHT22;37850;53.178;6.376;2023-06-22T14:10:03;23.50;99.90
51793;DHT22;37850;53.178;6.376;2023-06-22T14:12:29;23.50;99.90
51793;DHT22;37850;53.178;6.376;2023-06-22T14:14:55;23.40;99.90
51793;DHT22;37850;53.178;6.376;2023-06-22T14:17:21;23.40;99.90
51793;DHT22;37850;53.178;6.376;2023-06-22T14:19:51;23.30;99.90
51793;DHT22;37850;53.178;6.376;2023-06-22T14:22:21;23.20;99.90
51793;DHT22;37850;53.178;6.376;2023-06-22T14:24:50;23.20;99.90
51793;DHT22;37850;53.178;6.376;2023-06-22T14:27:16;23.20;99.90
51793;DHT22;37850;53.178;6.376;2023-06-22T14:29:42;23.10;99.90
51793;DHT22;37850;53.178;6.376;2023-06-22T14:32:08;23.00;99.90
51793;DHT22;37850;53.178;6.376;2023-06-22T14:34:34;23.00;99.90
51793;DHT22;37850;53.178;6.376;2023-06-22T14:37:07;22.90;99.90
51793;DHT22;37850;53.178;6.376;2023-06-22T14:39:35;22.90;99.90
51793;DHT22;37850;53.178;6.376;2023-06-22T14:42:01;22.90;99.90
51793;DHT22;37850;53.178;6.376;2023-06-22T14:44:29;22.90;99.90
51793;DHT22;37850;53.178;6.376;2023-06-22T14:46:55;22.90;99.90
51793;DHT22;37850;53.178;6.376;2023-06-22T14:49:21;22.90;99.90
51793;DHT22;37850;53.178;6.376;2023-06-22T14:51:47;22.80;99.90
51793;DHT22;37850;53.178;6.376;2023-06-22T14:54:13;22.80;99.90
51793;DHT22;37850;53.178;6.376;2023-06-22T14:56:38;22.80;99.90
51793;DHT22;37850;53.178;6.376;2023-06-22T14:59:04;22.70;99.90
51793;DHT22;37850;53.178;6.376;2023-06-22T15:01:30;22.60;99.90
51793;DHT22;37850;53.178;6.376;2023-06-22T15:03:56;22.60;99.90
51793;DHT22;37850;53.178;6.376;2023-06-22T15:06:22;22.50;99.90
51793;DHT22;37850;53.178;6.376;2023-06-22T15:08:47;22.40;99.90
51793;DHT22;37850;53.178;6.376;2023-06-22T15:11:13;22.40;99.90
51793;DHT22;37850;53.178;6.376;2023-06-22T15:13:40;22.30;99.90
51793;DHT22;37850;53.178;6.376;2023-06-22T15:16:06;22.30;99.90
51793;DHT22;37850;53.178;6.376;2023-06-22T15:18:32;22.30;99.90
51793;DHT22;37850;53.178;6.376;2023-06-22T15:21:01;22.20;99.90
51793;DHT22;37850;53.178;6.376;2023-06-22T15:23:31;22.20;99.90
51793;DHT22;37850;53.178;6.376;2023-06-22T15:25:57;22.20;99.90
51793;DHT22;37850;53.178;6.376;2023-06-22T15:28:24;22.10;99.90
51793;DHT22;37850;53.178;6.376;2023-06-22T15:30:50;22.10;99.90
51793;DHT22;37850;53.178;6.376;2023-06-22T15:33:17;22.00;99.90
51793;DHT22;37850;53.178;6.376;2023-06-22T15:35:43;22.00;99.90